This is the latest recevied weather packets stored in our database for station/object N0HEQ. If no packets are shown the sender has not sent any weather packets the latest 10 day(s).
| Time | Temp. | Humidity | Pressure | Rain* | Wind** | Luminosity | Snow |
|---|---|---|---|---|---|---|---|
| 1777856804 | 18.89° C | 24% | 1014.7 hPa | 0 mm | - | 11 W/m² | - |
| 1777856499 | 18.89° C | 24% | 1014.6 hPa | 0 mm | - | 12 W/m² | - |
| 1777856197 | 18.89° C | 24% | 1014.6 hPa | 0 mm | - | 14 W/m² | - |
| 1777855893 | 18.89° C | 23% | 1014.4 hPa | 0 mm | - | 18 W/m² | - |
| 1777855592 | 19.44° C | 24% | 1014.4 hPa | 0 mm | - | 25 W/m² | - |
| 1777855289 | 19.44° C | 23% | 1014.3 hPa | 0 mm | - | 32 W/m² | - |
| 1777854985 | 19.44° C | 23% | 1014.6 hPa | 0 mm | - | 39 W/m² | - |
| 1777854681 | 20° C | 23% | 1014.4 hPa | 0 mm | - | 47 W/m² | - |
| 1777854378 | 20° C | 23% | 1014.8 hPa | 0 mm | - | 47 W/m² | - |
| 1777854076 | 20° C | 22% | 1014.7 hPa | 0 mm | - | 44 W/m² | - |
| 1777853774 | 20° C | 22% | 1014.6 hPa | 0 mm | - | 42 W/m² | - |
| 1777853469 | 20° C | 21% | 1014.3 hPa | 0 mm | - | 34 W/m² | - |
| 1777853167 | 20.56° C | 21% | 1014.3 hPa | 0 mm | - | 33 W/m² | - |
| 1777852864 | 20.56° C | 22% | 1014.4 hPa | 0 mm | - | 39 W/m² | - |
| 1777852563 | 20.56° C | 21% | 1014 hPa | 0 mm | - | 51 W/m² | - |
| 1777852259 | 20.56° C | 21% | 1014.1 hPa | 0 mm | - | 57 W/m² | - |
| 1777851957 | 20.56° C | 20% | 1014.2 hPa | 0 mm | - | 58 W/m² | - |
| 1777851655 | 21.11° C | 21% | 1014.1 hPa | 0 mm | - | 56 W/m² | - |
| 1777851351 | 21.67° C | 20% | 1014.1 hPa | 0 mm | - | 72 W/m² | - |
| 1777851047 | 21.67° C | 18% | 1014.3 hPa | 0 mm | - | 100 W/m² | - |
| 1777850744 | 22.22° C | 18% | 1014.3 hPa | 0 mm | - | 123 W/m² | - |
| 1777850441 | 22.78° C | 18% | 1014.1 hPa | 0 mm | - | 134 W/m² | - |
| 1777850139 | 22.78° C | 17% | 1014.3 hPa | 0 mm | - | 136 W/m² | - |
| 1777849836 | 22.78° C | 16% | 1014.2 hPa | 0 mm | - | 152 W/m² | - |
| 1777849532 | 23.89° C | 15% | 1014.2 hPa | 0 mm | - | 271 W/m² | - |
* Rain latest hour (hover to see other rain measurements)
** Current wind speed in m/s (hover to see current wind gust speed)